Tropical Cyclones
[Index]
Main Index Home Page Stock Weather Photos Extreme Storms Discussion Storm News and Storm Chasing Reports Tropical Cyclones / Hurricanes / Typhoons Weather Data and Links Wild Fires / Bushfires Weather Observation Techniques Weather Picture Catalogue Tornado Pictures and Reports Stock Video Footage and DVDs for sale
Season 2001-2002 Tropical Cyclone DIANNE-JERY Track Map
Season 2001-2002 Summaries: [BoM-AU] [JTWC-AU] [JTWC-SIO] [JTWC-SPAC] [JTWC-SH]
<<- Previous TC | JTWC 2001-2002 Season | Next TC ->>

click for intensity scale information  Lat/long Grid: Show Hide

 Date Labels: Show Hide

Joint Typhoon Warning Centre Cyclone Data

Name: DIANNE-JERY

05 Apr 2002 18:00 UTC to 11 Apr 2002 18:00 UTC

    date/time    lat    long     hPa   cat  kts
2002-04-05 18   10.3   102.6    1002         25          
2002-04-06 00   10.7   101.9    1002         25          
2002-04-06 06   11.2   100.9    1002         25          
2002-04-06 12   11.7    99.9    1002         25          
2002-04-06 18   12.2    98.9    1000         30          
2002-04-07 00   12.2    97.9     997         35          
2002-04-07 06   12.5    96.9     991    1    45          
2002-04-07 12   13.2    95.8     984    2    55          
2002-04-07 18   13.9    94.5     980    2    60          
2002-04-08 00   14.4    93.1     976    2    65          
2002-04-08 06   14.8    91.9     967    3    75          
2002-04-08 12   15.2    91.0     963    3    80          
2002-04-08 18   15.8    90.1     954    3    90          
2002-04-09 00   16.5    89.3     954    3    90          
2002-04-09 06   17.2    88.5     954    3    90          
2002-04-09 12   17.7    88.1     938    4   105          
2002-04-09 18   18.3    88.1     944    4   100          
2002-04-10 00   18.9    88.2     949    3    95          
2002-04-10 06   19.6    88.1     967    3    75          
2002-04-10 12   20.2    88.1     976    2    65          
2002-04-10 18   20.9    88.1     976    2    65          
2002-04-11 00   21.2    88.7     980    2    60          
2002-04-11 06   21.8    89.1     991    1    40          
2002-04-11 12   22.7    89.1     997         35          
2002-04-11 18   23.5    89.8    1000         30          
Winds are 1-min average.

Tropical cyclone tracks developed by Michael Bath using data from the Joint Typhoon Warning Centre Best Tracks and Google Maps.


[Australian Severe Weather index] [Copyright Notice] [Email Contacts] [Search This Site] [Privacy Policy]
Document: tropical_cyclone_dianne-jery.htm Updated: 28 June 2017